Time;durP1;ratioP1;P1;durP2;ratioP2;P2;SDS_P1;SDS_P2;PMS_P1;PMS_P2;Temp;Humidity;BMP_temperature;BMP_pressure;BME280_temperature;BME280_humidity;BME280_pressure;Samples;Min_cycle;Max_cycle;Signal;HPM_P1;HPM_P2
2023/01/01 00:01:24;;;;;;;97.65;44.85;;;4.90;99.90;;;;;;5060702;28;19921;-79
2023/01/01 00:03:53;;;;;;;103.60;47.72;;;4.80;99.90;;;;;;5054347;28;20480;-73
2023/01/01 00:06:21;;;;;;;99.32;44.38;;;4.90;99.90;;;;;;5023296;28;20048;-79
2023/01/01 00:10:26;;;;;;;94.82;45.38;;;4.90;99.90;;;;;;5056509;28;20029;-78
2023/01/01 00:11:36;;;;;;;100.15;44.00;;;4.90;99.90;;;;;;5054996;28;20523;-79
2023/01/01 00:14:03;;;;;;;96.68;44.15;;;4.90;99.90;;;;;;5052363;28;20073;-77
2023/01/01 00:16:38;;;;;;;86.78;41.05;;;4.90;99.90;;;;;;5035937;28;20411;-73
2023/01/01 00:19:05;;;;;;;93.53;41.15;;;4.80;99.90;;;;;;5052182;28;20048;-77
2023/01/01 00:21:33;;;;;;;93.53;40.50;;;4.70;99.90;;;;;;5043925;28;20049;-76
2023/01/01 00:24:00;;;;;;;93.68;39.75;;;4.60;99.90;;;;;;5039105;28;20481;-81
2023/01/01 00:26:27;;;;;;;97.43;45.20;;;4.50;99.90;;;;;;5020303;28;20053;-75
2023/01/01 00:29:18;;;;;;;86.95;41.97;;;4.50;99.90;;;;;;5017168;28;20043;-73
2023/01/01 00:31:46;;;;;;;91.47;43.80;;;4.40;99.90;;;;;;5006947;28;20719;-76
2023/01/01 00:34:13;;;;;;;87.57;40.72;;;4.40;99.90;;;;;;5047397;28;20048;-71
2023/01/01 00:36:46;;;;;;;76.90;38.63;;;4.20;99.90;;;;;;5024764;28;20378;-72
2023/01/01 00:39:13;;;;;;;73.82;39.80;;;4.30;99.90;;;;;;5027514;28;20060;-77
2023/01/01 00:41:40;;;;;;;75.82;37.45;;;4.30;99.90;;;;;;5052585;28;20411;-72
2023/01/01 00:44:11;;;;;;;82.68;39.40;;;4.40;99.90;;;;;;5057317;28;20045;-72
2023/01/01 00:46:40;;;;;;;81.93;37.47;;;4.30;99.90;;;;;;5012414;28;20484;-79
2023/01/01 00:49:07;;;;;;;84.20;37.30;;;4.30;99.90;;;;;;5039988;28;20042;-82
2023/01/01 00:51:35;;;;;;;82.78;39.17;;;4.40;99.90;;;;;;5042148;28;20041;-75
2023/01/01 00:54:03;;;;;;;83.35;37.03;;;4.30;99.90;;;;;;5022943;28;20452;-72
2023/01/01 00:56:31;;;;;;;85.43;37.38;;;4.30;99.90;;;;;;5001504;28;20033;-71
2023/01/01 00:58:58;;;;;;;86.30;40.33;;;4.40;99.90;;;;;;5006190;28;20057;-74
2023/01/01 01:01:33;;;;;;;77.93;37.53;;;4.30;99.90;;;;;;5021518;28;20069;-72
2023/01/01 01:04:03;;;;;;;83.07;37.65;;;4.30;99.90;;;;;;5005157;28;20319;-70
2023/01/01 01:06:33;;;;;;;78.25;36.85;;;4.40;99.90;;;;;;5001915;28;20064;-75
2023/01/01 01:09:10;;;;;;;71.28;34.20;;;4.40;99.90;;;;;;5038485;28;20050;-70
2023/01/01 01:11:39;;;;;;;74.78;34.97;;;4.40;99.90;;;;;;5002434;28;20052;-72
2023/01/01 01:14:09;;;;;;;75.35;35.40;;;4.40;99.90;;;;;;4991655;28;20068;-72
2023/01/01 01:16:40;;;;;;;101.22;35.40;;;4.30;99.90;;;;;;5000547;28;20037;-75
2023/01/01 01:19:12;;;;;;;74.80;34.65;;;4.30;99.90;;;;;;5031097;28;20112;-71
2023/01/01 01:21:40;;;;;;;78.25;38.67;;;4.10;99.90;;;;;;5051839;28;20449;-72
2023/01/01 01:24:10;;;;;;;75.22;36.15;;;4.10;99.90;;;;;;5003889;28;20087;-72
2023/01/01 01:26:39;;;;;;;218.73;97.22;;;4.30;99.90;;;;;;5001745;28;20132;-73
2023/01/01 01:29:23;;;;;;;106.00;52.40;;;4.50;99.90;;;;;;5019804;28;20041;-72
2023/01/01 01:31:59;;;;;;;78.30;38.42;;;4.50;99.90;;;;;;5016220;28;20036;-78
2023/01/01 01:34:26;;;;;;;78.70;36.80;;;4.50;99.90;;;;;;5036391;28;20049;-71
2023/01/01 01:36:55;;;;;;;71.72;35.95;;;4.40;99.90;;;;;;5018576;28;20423;-74
2023/01/01 01:39:23;;;;;;;75.70;36.83;;;4.40;99.90;;;;;;5034437;28;20087;-72
2023/01/01 01:41:50;;;;;;;76.97;37.85;;;4.40;99.90;;;;;;5022274;28;20041;-81
2023/01/01 01:44:55;;;;;;;70.53;35.17;;;4.30;99.90;;;;;;5038314;28;20033;-77
2023/01/01 01:47:37;;;;;;;68.50;34.85;;;4.20;99.90;;;;;;4935925;29;20632;-75
2023/01/01 01:50:30;;;;;;;68.75;33.35;;;4.20;99.90;;;;;;5012179;28;20137;-73
2023/01/01 01:53:11;;;;;;;64.28;31.92;;;4.20;99.90;;;;;;5034903;28;20033;-72
2023/01/01 01:56:07;;;;;;;66.25;33.83;;;4.20;99.90;;;;;;5002576;28;20049;-72
2023/01/01 01:58:36;;;;;;;62.38;30.65;;;4.20;99.90;;;;;;5033990;28;20054;-71
2023/01/01 02:01:03;;;;;;;75.65;32.78;;;4.20;99.90;;;;;;5002154;28;20053;-76
2023/01/01 02:03:44;;;;;;;68.00;31.80;;;4.10;99.90;;;;;;5014582;28;20053;-75
2023/01/01 02:06:16;;;;;;;64.70;31.10;;;4.00;99.90;;;;;;5016307;28;20053;-72
2023/01/01 02:08:48;;;;;;;64.32;30.20;;;4.10;99.90;;;;;;5031751;28;20056;-71
2023/01/01 02:11:18;;;;;;;66.43;31.65;;;4.10;99.90;;;;;;4998755;28;20054;-75
2023/01/01 02:13:49;;;;;;;56.03;29.02;;;4.20;99.90;;;;;;4998350;28;20050;-70
2023/01/01 02:16:38;;;;;;;57.33;28.88;;;4.20;99.90;;;;;;5016472;28;20062;-71
2023/01/01 02:19:50;;;;;;;62.58;28.40;;;4.20;99.90;;;;;;5015667;28;20056;-70
2023/01/01 02:22:31;;;;;;;65.28;30.30;;;3.90;99.90;;;;;;5005421;28;20046;-79
2023/01/01 02:25:27;;;;;;;63.72;28.70;;;3.90;99.90;;;;;;5017422;28;20066;-74
2023/01/01 02:28:13;;;;;;;70.97;29.00;;;4.00;99.90;;;;;;5015627;28;20045;-72
2023/01/01 02:30:44;;;;;;;59.60;31.13;;;3.90;99.90;;;;;;5015525;28;20046;-73
2023/01/01 02:33:20;;;;;;;67.00;30.77;;;3.90;99.90;;;;;;4997619;28;20115;-79
2023/01/01 02:36:03;;;;;;;63.13;29.50;;;3.90;99.90;;;;;;5015782;28;20484;-70
2023/01/01 02:38:38;;;;;;;60.65;29.88;;;3.90;99.90;;;;;;4999026;28;20042;-73
2023/01/01 02:41:29;;;;;;;58.85;29.63;;;4.10;99.90;;;;;;4998772;28;20456;-75
2023/01/01 02:43:56;;;;;;;70.95;32.88;;;4.20;99.90;;;;;;4993764;28;20038;-76
2023/01/01 02:46:22;;;;;;;63.88;32.42;;;4.20;99.90;;;;;;5015203;28;20460;-74
2023/01/01 02:48:52;;;;;;;64.20;30.45;;;4.30;99.90;;;;;;5014557;28;20485;-71
2023/01/01 02:51:43;;;;;;;68.38;30.15;;;4.20;99.90;;;;;;4997277;28;20046;-71
2023/01/01 02:54:16;;;;;;;71.78;30.25;;;4.20;99.90;;;;;;4996926;28;20472;-78
2023/01/01 02:56:46;;;;;;;62.00;30.70;;;4.10;99.90;;;;;;4997540;28;20366;-71
2023/01/01 03:02:36;;;;;;;85.35;31.45;;;4.20;99.90;;;;;;5015167;28;20034;-72
2023/01/01 03:05:13;;;;;;;63.75;31.17;;;4.10;99.90;;;;;;4996666;28;20136;-73
2023/01/01 03:08:09;;;;;;;61.30;31.65;;;4.10;99.90;;;;;;4997417;28;20052;-71
2023/01/01 03:11:05;;;;;;;65.22;31.65;;;4.10;99.90;;;;;;5017942;28;20041;-80
2023/01/01 03:14:29;;;;;;;75.28;33.28;;;4.10;99.90;;;;;;5021255;28;20462;-72
2023/01/01 03:17:25;;;;;;;77.85;33.17;;;4.00;99.90;;;;;;5026325;28;20042;-74
2023/01/01 03:20:03;;;;;;;75.13;32.80;;;4.00;99.90;;;;;;5024723;28;20046;-76
2023/01/01 03:22:43;;;;;;;77.20;33.78;;;3.90;99.90;;;;;;5038980;28;20073;-73
2023/01/01 03:25:26;;;;;;;77.18;34.38;;;3.80;99.90;;;;;;5013327;28;20072;-81
2023/01/01 03:28:18;;;;;;;66.68;32.83;;;3.90;99.90;;;;;;5015712;28;20049;-69
2023/01/01 03:30:49;;;;;;;72.05;33.45;;;3.90;99.90;;;;;;4996978;28;20049;-72
2023/01/01 03:33:31;;;;;;;68.05;33.28;;;3.90;99.90;;;;;;4996741;28;20046;-69
2023/01/01 03:36:20;;;;;;;69.38;32.75;;;4.00;99.90;;;;;;5013998;28;20089;-70
2023/01/01 03:38:58;;;;;;;70.20;32.58;;;4.00;99.90;;;;;;4997436;28;20066;-76
2023/01/01 03:41:48;;;;;;;73.13;33.13;;;4.00;99.90;;;;;;5013598;28;20054;-75
2023/01/01 03:44:32;;;;;;;78.38;32.50;;;4.00;99.90;;;;;;4996363;28;20064;-76
2023/01/01 03:47:02;;;;;;;70.70;31.90;;;4.00;99.90;;;;;;4991823;28;20081;-76
2023/01/01 03:49:30;;;;;;;64.65;31.65;;;4.00;99.90;;;;;;5008002;28;20446;-74
2023/01/01 03:52:18;;;;;;;71.95;32.05;;;4.00;99.90;;;;;;5010504;28;20050;-78
2023/01/01 03:54:52;;;;;;;64.43;31.98;;;3.80;99.90;;;;;;4996333;28;20046;-71
2023/01/01 03:57:55;;;;;;;68.90;32.30;;;4.00;99.90;;;;;;4997016;28;20054;-71
2023/01/01 04:00:33;;;;;;;69.68;32.47;;;4.10;99.90;;;;;;5013201;28;20045;-71
2023/01/01 04:03:14;;;;;;;62.20;30.90;;;4.00;99.90;;;;;;4997277;28;20045;-76
2023/01/01 04:05:43;;;;;;;119.65;34.70;;;4.00;99.90;;;;;;5018893;28;20050;-78
2023/01/01 04:08:16;;;;;;;70.05;33.85;;;4.00;99.90;;;;;;5019698;28;20040;-78
2023/01/01 04:10:59;;;;;;;65.75;30.65;;;3.90;99.90;;;;;;5021242;28;20045;-77
2023/01/01 04:13:27;;;;;;;68.77;29.80;;;3.90;99.90;;;;;;5036841;28;20485;-78
2023/01/01 04:15:54;;;;;;;74.00;31.27;;;3.90;99.90;;;;;;5037395;28;20332;-78
2023/01/01 04:18:21;;;;;;;72.93;32.70;;;3.90;99.90;;;;;;5037194;28;20041;-77
2023/01/01 04:20:48;;;;;;;68.05;30.02;;;3.90;99.90;;;;;;5004000;28;20041;-71
2023/01/01 04:23:16;;;;;;;67.47;30.98;;;3.90;99.90;;;;;;5003696;28;20072;-70
2023/01/01 04:25:43;;;;;;;68.75;31.92;;;3.80;99.90;;;;;;5020302;28;20053;-70
2023/01/01 04:28:10;;;;;;;68.20;29.95;;;3.80;99.90;;;;;;5004253;28;20389;-71
2023/01/01 04:30:43;;;;;;;62.08;29.52;;;3.70;99.90;;;;;;5004687;28;20113;-80
2023/01/01 04:33:16;;;;;;;62.30;28.83;;;3.80;99.90;;;;;;5036414;28;20040;-72
2023/01/01 04:36:09;;;;;;;66.13;28.67;;;3.80;99.90;;;;;;5020357;28;20084;-72
2023/01/01 04:38:42;;;;;;;63.28;29.63;;;3.80;99.90;;;;;;5005652;28;20103;-77
2023/01/01 04:41:10;;;;;;;60.15;28.67;;;3.90;99.90;;;;;;5036884;28;20059;-78
2023/01/01 04:43:37;;;;;;;61.33;28.75;;;4.00;99.90;;;;;;5037881;28;20044;-79
2023/01/01 04:46:05;;;;;;;61.38;28.70;;;4.00;99.90;;;;;;5036952;28;20144;-77
2023/01/01 04:48:34;;;;;;;57.33;29.00;;;4.00;99.90;;;;;;5036660;28;20378;-75
2023/01/01 04:51:12;;;;;;;61.25;29.17;;;4.00;99.90;;;;;;5036988;28;20564;-77
2023/01/01 04:53:40;;;;;;;59.47;28.25;;;3.90;99.90;;;;;;5019420;28;20123;-80
2023/01/01 04:56:22;;;;;;;68.15;29.60;;;3.90;99.90;;;;;;5037141;28;20041;-71
2023/01/01 04:58:49;;;;;;;60.78;28.70;;;3.90;99.90;;;;;;5019202;28;20053;-74
2023/01/01 05:01:22;;;;;;;58.38;27.63;;;3.90;99.90;;;;;;5035221;28;20052;-73
2023/01/01 05:03:49;;;;;;;59.83;29.42;;;4.00;99.90;;;;;;5034972;28;20045;-72
2023/01/01 05:06:18;;;;;;;63.25;30.00;;;3.90;99.90;;;;;;5018605;28;20144;-78
2023/01/01 05:08:51;;;;;;;56.10;29.42;;;3.90;99.90;;;;;;5050947;28;20053;-77
2023/01/01 05:11:25;;;;;;;58.22;28.77;;;3.90;99.90;;;;;;5036287;28;20056;-77
2023/01/01 05:13:54;;;;;;;48.45;26.95;;;3.90;99.90;;;;;;5034929;28;20049;-71
2023/01/01 05:16:24;;;;;;;59.03;28.90;;;3.90;99.90;;;;;;5018500;28;20409;-78
2023/01/01 05:18:52;;;;;;;68.22;29.23;;;3.90;99.90;;;;;;5035222;28;20440;-79
2023/01/01 05:21:26;;;;;;;62.25;27.90;;;4.00;99.90;;;;;;5035720;28;20148;-77
2023/01/01 05:23:58;;;;;;;60.13;28.45;;;3.90;99.90;;;;;;5036197;28;20123;-71
2023/01/01 05:26:31;;;;;;;60.60;28.50;;;3.90;99.90;;;;;;5018418;28;20049;-76
2023/01/01 05:29:00;;;;;;;56.92;28.17;;;3.90;99.90;;;;;;5035713;28;20047;-70
2023/01/01 05:31:32;;;;;;;55.45;27.73;;;3.80;99.90;;;;;;5034819;28;20041;-77
2023/01/01 05:34:01;;;;;;;59.80;28.00;;;3.70;99.90;;;;;;5034541;28;20038;-69
2023/01/01 05:36:37;;;;;;;54.15;26.55;;;3.70;99.90;;;;;;5034752;28;20124;-75
2023/01/01 05:39:09;;;;;;;58.22;28.05;;;3.80;99.90;;;;;;5034654;28;20466;-70
2023/01/01 05:41:38;;;;;;;65.38;28.20;;;3.90;99.90;;;;;;5034101;28;20056;-75
2023/01/01 05:44:07;;;;;;;58.08;27.63;;;3.90;99.90;;;;;;5018843;28;20053;-78
2023/01/01 05:46:35;;;;;;;60.88;28.67;;;4.00;99.90;;;;;;5035000;28;20048;-72
2023/01/01 05:49:06;;;;;;;54.72;28.35;;;4.00;99.90;;;;;;5034903;28;20495;-75
2023/01/01 05:51:36;;;;;;;53.20;26.27;;;4.10;99.90;;;;;;5017611;28;20382;-72
2023/01/01 05:54:02;;;;;;;57.45;27.35;;;4.00;99.90;;;;;;5034443;28;20103;-81
2023/01/01 05:56:29;;;;;;;54.25;26.35;;;4.10;99.90;;;;;;5036048;28;20052;-76
2023/01/01 05:59:00;;;;;;;50.90;26.80;;;4.00;99.90;;;;;;5034855;28;20044;-72
2023/01/01 06:01:31;;;;;;;59.47;27.50;;;4.00;99.90;;;;;;5034611;28;20140;-75
2023/01/01 06:03:59;;;;;;;47.97;25.38;;;4.00;99.90;;;;;;5034875;28;20088;-79
2023/01/01 06:06:29;;;;;;;55.70;25.85;;;4.00;99.90;;;;;;5034207;28;20055;-70
2023/01/01 06:09:02;;;;;;;62.25;28.20;;;4.00;99.90;;;;;;5018459;28;20396;-78
2023/01/01 06:11:33;;;;;;;52.00;27.65;;;3.90;99.90;;;;;;5035685;28;20111;-72
2023/01/01 06:14:00;;;;;;;60.10;26.48;;;3.90;99.90;;;;;;5034001;28;20037;-70
2023/01/01 06:16:33;;;;;;;50.92;26.25;;;3.80;99.90;;;;;;5034472;28;20049;-79
2023/01/01 06:19:01;;;;;;;47.15;25.95;;;3.80;99.90;;;;;;5035041;28;20113;-70
2023/01/01 06:21:31;;;;;;;52.80;24.75;;;3.70;99.90;;;;;;5034313;28;20045;-78
2023/01/01 06:24:02;;;;;;;49.08;26.00;;;3.70;99.90;;;;;;5034621;28;20056;-72
2023/01/01 06:26:31;;;;;;;94.72;28.70;;;3.70;99.90;;;;;;5017225;28;20132;-75
2023/01/01 06:28:59;;;;;;;52.25;25.48;;;3.60;99.90;;;;;;5033773;28;20083;-72
2023/01/01 06:31:28;;;;;;;69.25;28.85;;;3.70;99.90;;;;;;5017343;28;20037;-72
2023/01/01 06:34:03;;;;;;;59.97;25.85;;;3.70;99.90;;;;;;5017534;28;20054;-77
2023/01/01 06:36:36;;;;;;;62.30;28.00;;;3.70;99.90;;;;;;5017484;28;20076;-72
2023/01/01 06:39:04;;;;;;;74.55;27.10;;;3.60;99.90;;;;;;5033010;28;20077;-72
2023/01/01 06:41:31;;;;;;;62.55;29.25;;;3.60;99.90;;;;;;5033112;28;20057;-76
2023/01/01 06:44:00;;;;;;;63.75;27.95;;;3.60;99.90;;;;;;5034088;28;20048;-77
2023/01/01 06:46:30;;;;;;;55.22;26.70;;;3.70;99.90;;;;;;5033567;28;20042;-72
2023/01/01 06:49:05;;;;;;;52.53;27.00;;;3.60;99.90;;;;;;5033869;28;20112;-78
2023/01/01 06:51:39;;;;;;;56.20;27.05;;;3.70;99.90;;;;;;5033965;28;20400;-76
2023/01/01 06:54:09;;;;;;;62.53;26.80;;;3.60;99.90;;;;;;5031864;28;20049;-71
2023/01/01 06:56:37;;;;;;;90.90;28.92;;;3.40;99.90;;;;;;5016816;28;20460;-76
2023/01/01 06:59:04;;;;;;;64.03;29.02;;;3.40;99.90;;;;;;5034050;28;20033;-69
2023/01/01 07:01:34;;;;;;;51.85;27.10;;;3.40;99.90;;;;;;5032805;28;20046;-77
2023/01/01 07:04:04;;;;;;;58.00;27.08;;;3.60;99.90;;;;;;5033750;28;20054;-75
2023/01/01 07:06:32;;;;;;;65.22;29.13;;;3.60;99.90;;;;;;5032489;28;20473;-74
2023/01/01 07:09:00;;;;;;;60.38;27.50;;;3.40;99.90;;;;;;5016937;28;20416;-78
2023/01/01 07:11:28;;;;;;;63.88;27.65;;;3.40;99.90;;;;;;5033932;28;20045;-72
2023/01/01 07:13:55;;;;;;;58.92;25.98;;;3.50;99.90;;;;;;5015558;28;20739;-71
2023/01/01 07:16:35;;;;;;;78.88;29.05;;;3.50;99.90;;;;;;5032347;28;20053;-72
2023/01/01 07:19:02;;;;;;;68.10;29.40;;;3.60;99.90;;;;;;5017804;28;20057;-79
2023/01/01 07:21:46;;;;;;;59.97;27.02;;;3.70;99.90;;;;;;5034060;28;20409;-77
2023/01/01 07:24:15;;;;;;;60.40;29.45;;;3.60;99.90;;;;;;4999571;28;20048;-72
2023/01/01 07:26:44;;;;;;;56.92;28.70;;;3.60;99.90;;;;;;5000717;28;20053;-80
2023/01/01 07:29:14;;;;;;;56.22;28.00;;;3.70;99.90;;;;;;5035163;28;20095;-76
2023/01/01 07:31:43;;;;;;;62.70;29.70;;;3.50;99.90;;;;;;5033104;28;20043;-78
2023/01/01 07:34:34;;;;;;;60.88;27.05;;;3.60;99.90;;;;;;5033297;28;20061;-71
2023/01/01 07:37:25;;;;;;;53.25;26.38;;;3.60;99.90;;;;;;5016596;28;20049;-72
2023/01/01 07:39:52;;;;;;;45.78;24.63;;;3.70;99.90;;;;;;4999974;28;20068;-73
2023/01/01 07:42:19;;;;;;;39.53;22.92;;;3.80;99.90;;;;;;5000391;28;20072;-74
2023/01/01 07:44:46;;;;;;;45.00;23.73;;;3.90;99.90;;;;;;5036416;28;20117;-80
2023/01/01 07:47:25;;;;;;;46.05;23.38;;;3.90;99.90;;;;;;5038123;28;20041;-78
2023/01/01 07:49:55;;;;;;;45.45;22.52;;;4.00;99.90;;;;;;5033548;28;20068;-77
2023/01/01 07:52:23;;;;;;;43.28;22.17;;;4.00;99.90;;;;;;5033809;28;20398;-76
2023/01/01 07:54:50;;;;;;;45.22;24.02;;;4.10;99.90;;;;;;5035099;28;20037;-70
2023/01/01 07:57:17;;;;;;;44.50;22.92;;;4.10;99.90;;;;;;5000070;28;20049;-77
2023/01/01 07:59:44;;;;;;;45.45;22.52;;;4.10;99.90;;;;;;5035966;28;20048;-78
2023/01/01 08:02:11;;;;;;;52.80;24.88;;;4.20;99.90;;;;;;5033392;28;20118;-70
2023/01/01 08:04:39;;;;;;;48.55;24.00;;;4.10;99.90;;;;;;5000012;28;20045;-78
2023/01/01 08:07:06;;;;;;;49.15;24.05;;;4.10;99.90;;;;;;5033329;28;20041;-72
2023/01/01 08:09:33;;;;;;;42.97;23.02;;;4.20;99.90;;;;;;4999952;28;20045;-73
2023/01/01 08:12:00;;;;;;;43.20;24.35;;;4.30;99.90;;;;;;5032293;28;20451;-74
2023/01/01 08:14:28;;;;;;;46.78;24.05;;;4.20;99.90;;;;;;4999881;28;20453;-73
2023/01/01 08:16:55;;;;;;;41.72;24.02;;;4.20;99.90;;;;;;5015438;28;20053;-69
2023/01/01 08:19:25;;;;;;;48.25;24.73;;;4.10;99.90;;;;;;4999936;28;20045;-72
2023/01/01 08:21:55;;;;;;;44.75;24.27;;;4.20;99.90;;;;;;5016197;28;20416;-69
2023/01/01 08:24:22;;;;;;;47.33;24.77;;;4.20;99.90;;;;;;5001211;28;20429;-73
2023/01/01 08:26:54;;;;;;;49.70;23.75;;;4.20;99.90;;;;;;5033807;28;20447;-70
2023/01/01 08:29:24;;;;;;;50.10;25.23;;;4.20;99.90;;;;;;4999953;28;20041;-71
2023/01/01 08:31:59;;;;;;;46.35;24.45;;;4.20;99.90;;;;;;5000423;28;20144;-72
2023/01/01 08:34:26;;;;;;;46.65;23.20;;;4.20;99.90;;;;;;4999094;28;20104;-74
2023/01/01 08:36:56;;;;;;;51.42;25.70;;;4.30;99.90;;;;;;4999496;28;20488;-71
2023/01/01 08:39:23;;;;;;;53.90;25.55;;;4.20;99.90;;;;;;5015948;28;20083;-72
2023/01/01 08:41:51;;;;;;;57.00;25.88;;;4.20;99.90;;;;;;5015055;28;20649;-77
2023/01/01 08:44:19;;;;;;;46.78;25.92;;;4.20;99.90;;;;;;5025274;28;20041;-69
2023/01/01 08:46:47;;;;;;;55.38;26.70;;;4.20;99.90;;;;;;5015103;28;20046;-75
2023/01/01 08:49:14;;;;;;;50.28;25.48;;;4.10;99.90;;;;;;5035010;28;20072;-74
2023/01/01 08:51:42;;;;;;;56.03;27.13;;;4.20;99.90;;;;;;5019280;28;20061;-79
2023/01/01 08:54:09;;;;;;;52.38;26.83;;;4.10;99.90;;;;;;5038523;28;20089;-77
2023/01/01 08:56:37;;;;;;;58.38;25.48;;;4.20;99.90;;;;;;5037990;28;20083;-70
2023/01/01 08:59:04;;;;;;;65.47;26.85;;;4.20;99.90;;;;;;5021022;28;20409;-77
2023/01/01 09:01:31;;;;;;;57.40;27.63;;;4.10;99.90;;;;;;5039522;28;20045;-75
2023/01/01 09:03:59;;;;;;;49.83;25.48;;;4.10;99.90;;;;;;5039054;28;20053;-75
2023/01/01 09:06:26;;;;;;;50.75;25.92;;;4.10;99.90;;;;;;5021916;28;20054;-73
2023/01/01 09:08:54;;;;;;;51.42;25.83;;;4.20;99.90;;;;;;5020776;28;20069;-78
2023/01/01 09:11:26;;;;;;;51.90;26.58;;;4.30;99.90;;;;;;5039144;28;20045;-76
2023/01/01 09:13:57;;;;;;;53.25;27.20;;;4.50;99.90;;;;;;5038431;28;20132;-76
2023/01/01 09:16:24;;;;;;;56.20;27.23;;;4.50;99.90;;;;;;5039133;28;20045;-74
2023/01/01 09:18:54;;;;;;;53.15;27.27;;;4.40;99.90;;;;;;5036135;28;20038;-75
2023/01/01 09:21:23;;;;;;;62.25;27.98;;;4.30;99.90;;;;;;5003438;28;20053;-72
2023/01/01 09:23:50;;;;;;;53.58;27.95;;;4.30;99.90;;;;;;5020717;28;20053;-71
2023/01/01 09:26:18;;;;;;;51.33;26.85;;;4.40;99.90;;;;;;5004103;28;20049;-77
2023/01/01 09:28:45;;;;;;;53.90;27.25;;;4.50;99.90;;;;;;5019440;28;20505;-78
2023/01/01 09:31:13;;;;;;;61.47;28.42;;;4.50;99.90;;;;;;5037816;28;20044;-73
2023/01/01 09:33:45;;;;;;;60.95;29.10;;;4.50;99.90;;;;;;5019632;28;20428;-71
2023/01/01 09:36:22;;;;;;;57.13;28.00;;;4.60;99.90;;;;;;5017691;28;20588;-72
2023/01/01 09:38:51;;;;;;;56.63;26.48;;;4.70;99.90;;;;;;5020872;28;20044;-80
2023/01/01 09:41:25;;;;;;;53.97;27.63;;;4.70;99.90;;;;;;5045054;28;20095;-78
2023/01/01 09:44:09;;;;;;;57.03;27.60;;;4.80;99.90;;;;;;5042734;28;20038;-73
2023/01/01 09:46:37;;;;;;;56.72;28.50;;;4.70;99.90;;;;;;5019974;28;20076;-78
2023/01/01 09:49:14;;;;;;;60.30;27.77;;;4.70;99.90;;;;;;5043271;28;20045;-75
2023/01/01 09:51:50;;;;;;;51.40;26.23;;;4.70;99.90;;;;;;5019790;28;20053;-72
2023/01/01 09:54:39;;;;;;;66.25;29.55;;;4.80;99.90;;;;;;5019868;28;20111;-77
2023/01/01 09:57:10;;;;;;;55.45;28.63;;;4.70;99.90;;;;;;5037810;28;20065;-78
2023/01/01 09:59:46;;;;;;;60.92;29.42;;;4.60;99.90;;;;;;5036897;28;20046;-71
2023/01/01 10:02:22;;;;;;;66.20;30.70;;;4.60;99.90;;;;;;5017215;28;20046;-74
2023/01/01 10:05:04;;;;;;;57.38;29.13;;;4.80;99.90;;;;;;5035525;28;20045;-72
2023/01/01 10:07:45;;;;;;;65.10;29.90;;;4.70;99.90;;;;;;5017313;28;20596;-76
2023/01/01 10:10:36;;;;;;;68.85;30.48;;;4.70;99.90;;;;;;5002657;28;20044;-71
2023/01/01 10:13:16;;;;;;;63.15;30.98;;;4.60;99.90;;;;;;5003457;28;20046;-81
2023/01/01 10:16:14;;;;;;;67.38;31.27;;;4.40;99.90;;;;;;5038083;28;20377;-73
2023/01/01 10:19:33;;;;;;;63.80;31.55;;;4.50;99.90;;;;;;5046098;28;20041;-76
2023/01/01 10:22:17;;;;;;;77.00;33.08;;;4.70;99.90;;;;;;5009960;28;20046;-76
2023/01/01 10:24:58;;;;;;;71.22;31.77;;;4.70;99.90;;;;;;5028917;28;20064;-75
2023/01/01 10:27:39;;;;;;;68.80;31.65;;;4.60;99.90;;;;;;5014127;28;20415;-70
2023/01/01 10:30:20;;;;;;;67.57;30.25;;;4.70;99.90;;;;;;5038269;28;20037;-72
2023/01/01 10:32:52;;;;;;;64.28;32.05;;;4.60;99.90;;;;;;5009069;28;20041;-81
2023/01/01 10:35:22;;;;;;;66.10;31.83;;;4.70;99.90;;;;;;5044456;28;20042;-73
2023/01/01 10:38:02;;;;;;;60.85;30.38;;;4.70;99.90;;;;;;5046215;28;20059;-80
2023/01/01 10:40:33;;;;;;;62.67;30.75;;;4.80;99.90;;;;;;5012542;28;20041;-72
2023/01/01 10:43:02;;;;;;;65.38;30.52;;;4.80;99.90;;;;;;5043520;28;20439;-78
2023/01/01 10:45:34;;;;;;;66.82;30.73;;;4.70;99.90;;;;;;5026523;28;20115;-79
2023/01/01 10:48:42;;;;;;;83.75;40.92;;;4.70;99.90;;;;;;5031261;28;20091;-74
2023/01/01 10:51:16;;;;;;;193.93;88.95;;;4.90;99.90;;;;;;5032016;28;20124;-80
2023/01/01 10:53:54;;;;;;;147.43;68.22;;;5.20;99.90;;;;;;5046661;28;20086;-79
2023/01/01 10:56:23;;;;;;;78.57;38.25;;;5.20;99.90;;;;;;5043235;28;20060;-78
2023/01/01 10:59:03;;;;;;;73.43;31.90;;;5.20;99.90;;;;;;5036986;28;20137;-81
2023/01/01 11:01:32;;;;;;;65.53;31.17;;;5.10;99.90;;;;;;5020287;28;20050;-75
2023/01/01 11:04:28;;;;;;;71.90;33.17;;;5.00;99.90;;;;;;5022371;28;20057;-73
2023/01/01 11:07:14;;;;;;;71.88;33.80;;;5.00;99.90;;;;;;5015451;28;20041;-73
2023/01/01 11:10:00;;;;;;;64.78;30.25;;;5.10;99.90;;;;;;5038286;28;20045;-78
2023/01/01 11:12:42;;;;;;;74.03;32.60;;;5.10;99.90;;;;;;5058414;28;20496;-74
2023/01/01 11:15:30;;;;;;;71.03;32.40;;;5.00;99.90;;;;;;5031985;28;20049;-78
2023/01/01 11:18:10;;;;;;;76.90;33.33;;;5.00;99.90;;;;;;5062892;28;20044;-71
2023/01/01 11:20:40;;;;;;;77.65;34.95;;;5.00;99.90;;;;;;5036460;28;20442;-72
2023/01/01 11:23:18;;;;;;;74.07;33.40;;;5.00;99.90;;;;;;5055998;28;20056;-71
2023/01/01 11:26:19;;;;;;;80.93;36.22;;;5.00;99.90;;;;;;5036565;28;20044;-82
2023/01/01 11:29:21;;;;;;;78.03;34.83;;;5.00;99.90;;;;;;4954209;28;20075;-79
2023/01/01 11:31:49;;;;;;;75.00;35.25;;;5.00;99.90;;;;;;5049911;28;20034;-80
2023/01/01 11:34:28;;;;;;;81.88;35.45;;;4.90;99.90;;;;;;5049546;28;20428;-71
2023/01/01 11:37:28;;;;;;;79.32;34.58;;;5.00;99.90;;;;;;5001142;28;20065;-80
2023/01/01 11:40:00;;;;;;;94.78;35.78;;;5.10;99.90;;;;;;5018116;28;20077;-78
2023/01/01 11:42:34;;;;;;;88.30;35.85;;;5.20;99.90;;;;;;4995955;28;20057;-73
2023/01/01 11:45:33;;;;;;;82.47;34.40;;;5.40;99.90;;;;;;5009243;28;20402;-72
2023/01/01 11:48:18;;;;;;;84.57;35.15;;;5.20;99.90;;;;;;5000426;28;20058;-75
2023/01/01 11:51:01;;;;;;;81.43;35.72;;;5.20;99.90;;;;;;4998674;28;20053;-72
2023/01/01 11:53:44;;;;;;;79.40;35.67;;;5.30;99.90;;;;;;4999821;28;20413;-75
2023/01/01 11:56:31;;;;;;;74.85;33.10;;;5.40;99.90;;;;;;5020024;28;20126;-71
2023/01/01 11:59:15;;;;;;;86.65;37.20;;;5.40;99.90;;;;;;5021219;28;20048;-78
2023/01/01 12:02:11;;;;;;;84.32;35.35;;;5.50;99.90;;;;;;5043255;28;20091;-76
2023/01/01 12:05:09;;;;;;;79.63;34.15;;;5.40;99.90;;;;;;5037763;28;20049;-80
2023/01/01 12:07:37;;;;;;;86.30;37.50;;;5.30;99.90;;;;;;5030037;28;20077;-82
2023/01/01 12:10:16;;;;;;;79.13;35.42;;;5.40;99.90;;;;;;5022252;28;20056;-83
2023/01/01 12:12:56;;;;;;;91.18;37.25;;;5.40;99.90;;;;;;5019980;28;20485;-79
2023/01/01 12:16:01;;;;;;;88.40;38.22;;;5.50;99.90;;;;;;5043556;28;20650;-79
2023/01/01 12:18:47;;;;;;;82.78;37.10;;;5.50;99.90;;;;;;4993847;28;20057;-70
2023/01/01 12:21:31;;;;;;;96.18;36.75;;;5.50;99.90;;;;;;5012269;28;20484;-72
2023/01/01 12:24:11;;;;;;;89.30;39.35;;;5.60;99.90;;;;;;5014873;28;20044;-77
2023/01/01 12:27:18;;;;;;;96.63;39.00;;;5.70;99.90;;;;;;5044094;28;20079;-72
2023/01/01 12:30:16;;;;;;;181.02;74.50;;;5.70;99.90;;;;;;5038884;28;20045;-81
2023/01/01 12:33:21;;;;;;;205.77;91.22;;;5.90;99.90;;;;;;5014175;28;20045;-73
2023/01/01 12:36:02;;;;;;;120.43;55.90;;;6.10;99.90;;;;;;5043905;28;20033;-75
2023/01/01 12:39:04;;;;;;;93.88;41.92;;;6.00;99.90;;;;;;5016838;28;20049;-73
2023/01/01 12:42:07;;;;;;;87.38;37.38;;;5.90;99.90;;;;;;5049124;28;20461;-70
2023/01/01 12:44:50;;;;;;;84.47;38.47;;;5.90;99.90;;;;;;5025052;28;20422;-76
2023/01/01 12:47:37;;;;;;;89.90;40.50;;;5.40;99.90;;;;;;5028717;28;20099;-70
2023/01/01 12:50:04;;;;;;;92.03;38.75;;;5.50;99.90;;;;;;5037772;28;20037;-76
2023/01/01 12:52:59;;;;;;;89.85;39.72;;;5.60;99.90;;;;;;5038618;28;20029;-79
2023/01/01 12:55:29;;;;;;;95.32;40.65;;;5.60;99.90;;;;;;5048826;28;20056;-79
2023/01/01 12:58:04;;;;;;;86.35;38.40;;;5.70;99.90;;;;;;5051275;28;20099;-76
2023/01/01 13:00:36;;;;;;;91.85;40.45;;;5.60;99.90;;;;;;5039806;28;20156;-81
2023/01/01 13:03:18;;;;;;;92.93;41.42;;;5.50;99.90;;;;;;5010393;28;20041;-79
2023/01/01 13:05:53;;;;;;;95.35;40.33;;;5.40;99.90;;;;;;5015475;28;20140;-75
2023/01/01 13:08:20;;;;;;;98.82;38.60;;;5.50;99.90;;;;;;5046318;28;20033;-71
2023/01/01 13:10:53;;;;;;;97.25;39.90;;;5.40;99.90;;;;;;5003523;28;20564;-78
2023/01/01 13:13:30;;;;;;;101.68;38.00;;;5.50;99.90;;;;;;5025976;28;20393;-70
2023/01/01 13:15:58;;;;;;;100.25;39.80;;;5.40;99.90;;;;;;5017845;28;20050;-71
2023/01/01 13:18:33;;;;;;;90.38;39.15;;;5.40;99.90;;;;;;5037899;28;20136;-69
2023/01/01 13:21:22;;;;;;;113.47;46.15;;;5.40;99.90;;;;;;5013263;28;20048;-73